Time;durP1;ratioP1;P1;durP2;ratioP2;P2;SDS_P1;SDS_P2;PMS_P1;PMS_P2;Temp;Humidity;BMP_temperature;BMP_pressure;BME280_temperature;BME280_humidity;BME280_pressure;Samples;Min_cycle;Max_cycle;Signal;HPM_P1;HPM_P2
2023/06/19 00:01:38;;;;;;;3.70;3.30;;;23.70;90.90;;;;;;5054663;28;20181;-64
2023/06/19 00:04:04;;;;;;;3.47;3.17;;;23.70;91.60;;;;;;5072198;28;20188;-62
2023/06/19 00:06:32;;;;;;;3.58;3.28;;;23.60;91.30;;;;;;5063278;28;20242;-65
2023/06/19 00:09:00;;;;;;;4.35;3.60;;;23.60;91.50;;;;;;5056806;28;20196;-65
2023/06/19 00:11:25;;;;;;;3.78;3.47;;;23.60;92.10;;;;;;5053218;28;20278;-64
2023/06/19 00:13:53;;;;;;;3.70;3.40;;;23.50;92.30;;;;;;5064512;28;20200;-64
2023/06/19 00:16:19;;;;;;;4.68;3.90;;;23.50;92.80;;;;;;5054545;28;20177;-64
2023/06/19 00:18:45;;;;;;;3.53;3.20;;;23.40;93.20;;;;;;5044325;28;20174;-64
2023/06/19 00:21:13;;;;;;;6.38;3.67;;;23.40;93.20;;;;;;5036973;28;20154;-62
2023/06/19 00:23:39;;;;;;;5.43;4.00;;;23.30;93.40;;;;;;5058092;28;20181;-63
2023/06/19 00:26:06;;;;;;;4.15;3.75;;;23.30;93.90;;;;;;5077016;28;20188;-63
2023/06/19 00:28:32;;;;;;;4.07;3.40;;;23.30;94.40;;;;;;5057071;28;20173;-63
2023/06/19 00:31:02;;;;;;;4.13;3.80;;;23.20;94.50;;;;;;5074856;28;20172;-64
2023/06/19 00:33:29;;;;;;;3.97;3.58;;;23.20;94.80;;;;;;5053881;28;20208;-64
2023/06/19 00:35:55;;;;;;;4.13;3.58;;;23.20;95.10;;;;;;5076804;28;20165;-64
2023/06/19 00:38:20;;;;;;;4.07;3.63;;;23.20;95.50;;;;;;5046978;28;20173;-61
2023/06/19 00:40:46;;;;;;;3.90;3.50;;;23.10;95.80;;;;;;5059495;28;20188;-64
2023/06/19 00:43:14;;;;;;;3.85;3.45;;;23.10;96.20;;;;;;5056600;28;20193;-64
2023/06/19 00:45:45;;;;;;;3.97;3.58;;;23.10;97.20;;;;;;5060838;28;20272;-63
2023/06/19 00:48:11;;;;;;;3.75;3.40;;;23.10;97.40;;;;;;5061379;28;20190;-66
2023/06/19 00:50:39;;;;;;;3.83;3.53;;;23.10;97.30;;;;;;5064595;28;20284;-64
2023/06/19 00:53:07;;;;;;;4.10;3.70;;;23.10;98.10;;;;;;5060813;28;20207;-66
2023/06/19 00:55:35;;;;;;;3.90;3.35;;;23.10;97.70;;;;;;5058437;28;20275;-66
2023/06/19 00:58:06;;;;;;;4.00;3.60;;;23.10;98.10;;;;;;5063985;28;20256;-65
2023/06/19 01:00:32;;;;;;;4.18;3.78;;;23.10;99.10;;;;;;5060810;28;20165;-64
2023/06/19 01:02:58;;;;;;;4.22;3.83;;;23.10;98.70;;;;;;5056159;28;20232;-64
2023/06/19 01:05:25;;;;;;;4.20;3.80;;;23.10;99.10;;;;;;5056594;28;20197;-64
2023/06/19 01:07:59;;;;;;;4.10;3.70;;;23.10;99.40;;;;;;5062216;28;20238;-64
2023/06/19 01:10:32;;;;;;;4.78;3.95;;;23.10;99.90;;;;;;5059763;28;20183;-63
2023/06/19 01:13:28;;;;;;;4.30;3.90;;;23.10;99.90;;;;;;5059626;28;20279;-64
2023/06/19 01:15:58;;;;;;;3.88;3.47;;;23.10;99.90;;;;;;5054814;28;20268;-64
2023/06/19 01:18:27;;;;;;;4.43;4.03;;;23.10;99.90;;;;;;5059364;28;20287;-64
2023/06/19 01:20:52;;;;;;;4.30;3.90;;;23.10;99.90;;;;;;5059254;28;20164;-64
2023/06/19 01:23:18;;;;;;;3.85;3.55;;;23.10;99.90;;;;;;5059367;28;20183;-63
2023/06/19 01:25:45;;;;;;;4.32;3.78;;;23.20;99.90;;;;;;5058468;28;20201;-62
2023/06/19 01:28:12;;;;;;;4.15;3.75;;;23.20;99.90;;;;;;5059134;28;20183;-64
2023/06/19 01:30:42;;;;;;;4.10;3.70;;;23.10;99.90;;;;;;5048287;28;20173;-61
2023/06/19 01:33:17;;;;;;;4.47;4.07;;;23.10;99.90;;;;;;5074148;28;20201;-64
2023/06/19 01:35:47;;;;;;;4.85;4.35;;;23.10;99.90;;;;;;5052071;28;20443;-65
2023/06/19 01:38:16;;;;;;;4.93;4.35;;;23.10;99.90;;;;;;5054587;28;20260;-64
2023/06/19 01:40:48;;;;;;;4.38;3.97;;;23.10;99.90;;;;;;5065783;28;20197;-64
2023/06/19 01:43:15;;;;;;;4.50;4.10;;;23.10;99.90;;;;;;5053683;28;20177;-64
2023/06/19 01:45:43;;;;;;;4.60;4.20;;;23.00;99.90;;;;;;5075359;28;20187;-64
2023/06/19 01:48:10;;;;;;;5.18;4.68;;;23.00;99.90;;;;;;5051446;28;20197;-64
2023/06/19 01:50:38;;;;;;;4.72;4.22;;;23.00;99.90;;;;;;5058790;28;20497;-64
2023/06/19 01:53:03;;;;;;;4.50;4.10;;;23.00;99.90;;;;;;5058625;28;20303;-64
2023/06/19 01:55:29;;;;;;;4.53;4.13;;;23.00;99.90;;;;;;5058276;28;20204;-67
2023/06/19 01:57:54;;;;;;;4.53;4.13;;;23.00;99.90;;;;;;5068113;28;20176;-64
2023/06/19 02:00:20;;;;;;;4.20;3.80;;;23.00;99.90;;;;;;5058359;28;20196;-64
2023/06/19 02:02:46;;;;;;;5.75;4.30;;;23.00;99.90;;;;;;5058611;28;20172;-64
2023/06/19 02:05:15;;;;;;;4.40;4.00;;;23.00;99.90;;;;;;5058865;28;20249;-64
2023/06/19 02:07:40;;;;;;;4.40;4.00;;;23.00;99.90;;;;;;5058360;28;20172;-64
2023/06/19 02:10:08;;;;;;;4.15;3.75;;;23.10;99.90;;;;;;5058772;28;20179;-62
2023/06/19 02:12:35;;;;;;;3.85;3.55;;;23.20;99.90;;;;;;5058485;28;20207;-65
2023/06/19 02:15:01;;;;;;;4.50;4.10;;;23.20;99.90;;;;;;5055851;28;20173;-64
2023/06/19 02:17:29;;;;;;;3.90;3.60;;;23.20;99.90;;;;;;5057278;28;20187;-64
2023/06/19 02:19:54;;;;;;;4.72;4.32;;;23.20;99.90;;;;;;5057592;28;20196;-65
2023/06/19 02:22:20;;;;;;;4.15;3.80;;;23.20;99.90;;;;;;5051541;28;20200;-65
2023/06/19 02:24:46;;;;;;;4.32;3.92;;;23.20;99.90;;;;;;5039624;28;20178;-65
2023/06/19 02:27:11;;;;;;;4.20;3.80;;;23.30;99.90;;;;;;5044759;28;20180;-64
2023/06/19 02:29:39;;;;;;;4.45;4.05;;;23.30;99.90;;;;;;5054883;28;20177;-64
2023/06/19 02:32:05;;;;;;;4.38;3.97;;;23.30;99.90;;;;;;5053325;28;20229;-62
2023/06/19 02:34:33;;;;;;;4.20;3.80;;;23.30;99.90;;;;;;5054827;28;20227;-65
2023/06/19 02:36:59;;;;;;;4.72;4.10;;;23.30;99.90;;;;;;5065552;28;20165;-63
2023/06/19 02:39:24;;;;;;;4.32;3.85;;;23.40;99.90;;;;;;5052398;28;20342;-65
2023/06/19 02:41:50;;;;;;;5.10;3.90;;;23.40;99.90;;;;;;5058131;28;20218;-64
2023/06/19 02:44:18;;;;;;;4.30;3.90;;;23.40;99.90;;;;;;5058028;28;20187;-65
2023/06/19 02:46:44;;;;;;;4.28;3.88;;;23.40;99.90;;;;;;5055253;28;20176;-65
2023/06/19 02:49:11;;;;;;;4.88;4.38;;;23.30;99.90;;;;;;5049078;28;20214;-64
2023/06/19 02:51:37;;;;;;;4.85;4.40;;;23.30;99.90;;;;;;5051193;28;20227;-63
2023/06/19 02:54:03;;;;;;;5.32;4.53;;;23.30;99.90;;;;;;5073910;28;20196;-65
2023/06/19 02:56:31;;;;;;;5.88;4.38;;;23.30;99.90;;;;;;5058031;28;20173;-65
2023/06/19 02:58:56;;;;;;;4.57;4.15;;;23.20;99.90;;;;;;5052767;28;20216;-63
2023/06/19 03:01:22;;;;;;;4.20;3.80;;;23.20;99.90;;;;;;5059872;28;20211;-65
2023/06/19 03:03:52;;;;;;;4.32;3.92;;;23.20;99.90;;;;;;5057224;28;20271;-64
2023/06/19 03:06:22;;;;;;;4.47;3.88;;;23.10;99.90;;;;;;5057414;28;20246;-63
2023/06/19 03:08:53;;;;;;;4.22;3.83;;;23.10;99.90;;;;;;5046198;28;20177;-65
2023/06/19 03:11:18;;;;;;;4.03;3.63;;;23.10;99.90;;;;;;5057523;28;20165;-66
2023/06/19 03:13:48;;;;;;;4.40;3.97;;;23.10;99.90;;;;;;5056367;28;20192;-65
2023/06/19 03:16:17;;;;;;;4.00;3.63;;;23.00;99.90;;;;;;5065588;28;20173;-65
2023/06/19 03:18:46;;;;;;;4.28;3.88;;;23.00;99.90;;;;;;5045654;28;20193;-63
2023/06/19 03:21:19;;;;;;;4.53;3.78;;;22.90;99.90;;;;;;5053889;28;20173;-65
2023/06/19 03:23:47;;;;;;;4.80;3.75;;;22.90;99.90;;;;;;5037387;28;20193;-64
2023/06/19 03:26:13;;;;;;;4.82;3.45;;;22.90;99.90;;;;;;5056240;28;20244;-65
2023/06/19 03:28:40;;;;;;;4.78;4.28;;;22.90;99.90;;;;;;5057109;28;20318;-64
2023/06/19 03:31:08;;;;;;;6.45;5.85;;;23.00;99.90;;;;;;5057292;28;20222;-64
2023/06/19 03:33:36;;;;;;;4.93;4.28;;;23.00;99.90;;;;;;5056362;28;20232;-64
2023/06/19 03:36:01;;;;;;;4.47;3.85;;;23.10;99.90;;;;;;5056993;28;20411;-65
2023/06/19 03:38:27;;;;;;;4.15;3.75;;;23.20;99.90;;;;;;5057166;28;20262;-63
2023/06/19 03:40:55;;;;;;;3.83;3.47;;;23.20;99.90;;;;;;5050698;28;20205;-65
2023/06/19 03:43:20;;;;;;;4.43;3.50;;;23.20;99.90;;;;;;5053209;28;20184;-64
2023/06/19 03:45:51;;;;;;;3.90;3.20;;;23.30;99.90;;;;;;5053746;28;20207;-64
2023/06/19 03:48:19;;;;;;;3.78;3.42;;;23.30;99.90;;;;;;5047917;28;20165;-65
2023/06/19 03:50:44;;;;;;;3.55;3.22;;;23.40;99.90;;;;;;5056833;28;20192;-65
2023/06/19 03:53:10;;;;;;;4.25;3.70;;;23.40;99.90;;;;;;5056946;28;20211;-64
2023/06/19 03:55:39;;;;;;;5.38;3.78;;;23.40;99.90;;;;;;5074515;28;20161;-64
2023/06/19 03:58:05;;;;;;;4.18;3.67;;;23.40;99.90;;;;;;5058570;28;20204;-65
2023/06/19 04:00:34;;;;;;;5.03;3.50;;;23.50;99.90;;;;;;5077604;28;20168;-64
2023/06/19 04:03:00;;;;;;;3.90;3.55;;;23.50;99.90;;;;;;5077005;28;20196;-64
2023/06/19 04:05:27;;;;;;;5.07;3.60;;;23.50;99.90;;;;;;5060986;28;20196;-64
2023/06/19 04:07:53;;;;;;;4.05;3.65;;;23.50;99.90;;;;;;5060234;28;20183;-66
2023/06/19 04:10:19;;;;;;;4.30;3.90;;;23.50;99.90;;;;;;5060445;28;20173;-65
2023/06/19 04:12:47;;;;;;;3.83;3.42;;;23.50;99.90;;;;;;5060512;28;20196;-65
2023/06/19 04:15:13;;;;;;;3.83;3.22;;;23.50;99.90;;;;;;5060573;28;20188;-65
2023/06/19 04:17:39;;;;;;;3.90;3.60;;;23.50;99.90;;;;;;5060658;28;20193;-65
2023/06/19 04:20:10;;;;;;;3.92;3.20;;;23.50;99.90;;;;;;5060573;28;20263;-68
2023/06/19 04:22:38;;;;;;;3.47;3.08;;;23.50;99.90;;;;;;5059574;28;20177;-64
2023/06/19 04:25:10;;;;;;;5.53;3.35;;;23.40;99.90;;;;;;5059530;28;20232;-65
2023/06/19 04:27:38;;;;;;;4.63;3.40;;;23.40;99.90;;;;;;5060156;28;20480;-65
2023/06/19 04:30:06;;;;;;;4.28;3.88;;;23.40;99.90;;;;;;5066088;28;20184;-65
2023/06/19 04:32:32;;;;;;;4.28;3.70;;;23.40;99.90;;;;;;5059543;28;20176;-65
2023/06/19 04:34:57;;;;;;;4.53;3.90;;;23.40;99.90;;;;;;5059380;28;20198;-64
2023/06/19 04:37:25;;;;;;;5.00;3.70;;;23.40;99.90;;;;;;5059819;28;20196;-65
2023/06/19 04:39:54;;;;;;;3.45;3.08;;;23.40;99.90;;;;;;5077341;28;20232;-65
2023/06/19 04:42:20;;;;;;;3.83;3.42;;;23.40;99.90;;;;;;5072931;28;20181;-64
2023/06/19 04:44:49;;;;;;;4.25;3.28;;;23.40;99.90;;;;;;5058925;28;20257;-65
2023/06/19 04:47:23;;;;;;;7.10;6.13;;;23.40;99.90;;;;;;5059857;28;20268;-66
2023/06/19 04:49:50;;;;;;;5.28;4.63;;;23.40;99.90;;;;;;5053822;28;20188;-66
2023/06/19 04:52:19;;;;;;;4.63;3.92;;;23.40;99.90;;;;;;5058341;28;20168;-65
2023/06/19 04:54:49;;;;;;;3.88;3.58;;;23.40;99.90;;;;;;5059918;28;20168;-66
2023/06/19 04:57:19;;;;;;;6.55;3.85;;;23.40;99.90;;;;;;5059163;28;20193;-67
2023/06/19 04:59:45;;;;;;;3.65;3.35;;;23.40;99.90;;;;;;5053218;28;20169;-67
2023/06/19 05:02:15;;;;;;;4.05;3.65;;;23.40;99.90;;;;;;5054790;28;20192;-65
2023/06/19 05:04:43;;;;;;;3.97;3.58;;;23.40;99.90;;;;;;5045009;28;20264;-66
2023/06/19 05:07:10;;;;;;;4.07;3.67;;;23.40;99.90;;;;;;5056488;28;20204;-65
2023/06/19 05:09:36;;;;;;;4.53;3.40;;;23.40;99.90;;;;;;5058291;28;20212;-67
2023/06/19 05:12:02;;;;;;;5.35;3.50;;;23.40;99.90;;;;;;5059593;28;20188;-67
2023/06/19 05:14:27;;;;;;;3.95;3.53;;;23.40;99.90;;;;;;5056359;28;20204;-67
2023/06/19 05:16:53;;;;;;;3.80;3.38;;;23.40;99.90;;;;;;5059471;28;20279;-67
2023/06/19 05:19:19;;;;;;;4.45;3.50;;;23.40;99.90;;;;;;5059177;28;20217;-67
2023/06/19 05:21:44;;;;;;;3.75;3.20;;;23.40;99.90;;;;;;5059428;28;20521;-68
2023/06/19 05:24:10;;;;;;;4.20;3.80;;;23.40;99.90;;;;;;5058722;28;20199;-68
2023/06/19 05:26:35;;;;;;;3.58;3.28;;;23.40;99.90;;;;;;5059617;28;20226;-68
2023/06/19 05:29:01;;;;;;;3.70;3.30;;;23.40;99.90;;;;;;5058851;28;20266;-68
2023/06/19 05:31:29;;;;;;;3.75;3.40;;;23.40;99.90;;;;;;5059048;28;20177;-66
2023/06/19 05:33:55;;;;;;;3.47;3.15;;;23.40;99.90;;;;;;5058729;28;20197;-66
2023/06/19 05:36:20;;;;;;;3.30;3.00;;;23.40;99.90;;;;;;5058612;28;20215;-66
2023/06/19 05:38:46;;;;;;;3.50;3.20;;;23.40;99.90;;;;;;5058313;28;20204;-66
2023/06/19 05:41:16;;;;;;;3.75;3.35;;;23.40;99.90;;;;;;5056599;28;20169;-66
2023/06/19 05:43:41;;;;;;;3.55;2.92;;;23.40;99.90;;;;;;5058124;28;20197;-66
2023/06/19 05:46:12;;;;;;;3.80;3.28;;;23.40;99.90;;;;;;5057736;28;20275;-66
2023/06/19 05:48:37;;;;;;;3.88;3.47;;;23.40;99.90;;;;;;5058432;28;20510;-66
2023/06/19 05:51:03;;;;;;;3.67;3.17;;;23.40;99.90;;;;;;5058028;28;20181;-66
2023/06/19 05:53:33;;;;;;;3.47;3.13;;;23.40;99.90;;;;;;5058315;28;20197;-66
2023/06/19 05:55:59;;;;;;;3.75;2.95;;;23.40;99.90;;;;;;5058586;28;20196;-67
2023/06/19 05:58:25;;;;;;;4.03;3.28;;;23.50;99.90;;;;;;5057631;28;20184;-67
2023/06/19 06:00:57;;;;;;;3.92;3.33;;;23.50;99.90;;;;;;5074907;28;20176;-67
2023/06/19 06:03:24;;;;;;;3.22;2.92;;;23.50;99.90;;;;;;5058518;28;20268;-66
2023/06/19 06:05:52;;;;;;;3.40;3.10;;;23.50;99.90;;;;;;5075380;28;20179;-66
2023/06/19 06:08:18;;;;;;;3.25;2.95;;;23.50;99.90;;;;;;5067459;28;20224;-67
2023/06/19 06:10:44;;;;;;;3.25;2.95;;;23.60;99.90;;;;;;5059769;28;20177;-66
2023/06/19 06:13:11;;;;;;;4.32;3.08;;;23.60;99.90;;;;;;5073665;28;20197;-66
2023/06/19 06:15:37;;;;;;;3.97;3.00;;;23.70;99.90;;;;;;5057377;28;20268;-66
2023/06/19 06:18:03;;;;;;;4.03;2.80;;;23.70;99.90;;;;;;5057564;28;20259;-66
2023/06/19 06:20:31;;;;;;;3.22;2.92;;;23.80;99.90;;;;;;5054551;28;20183;-67
2023/06/19 06:22:56;;;;;;;3.22;2.92;;;23.90;99.90;;;;;;5063968;28;20201;-66
2023/06/19 06:25:24;;;;;;;5.00;3.03;;;23.90;99.90;;;;;;5075268;28;20179;-67
2023/06/19 06:27:52;;;;;;;3.65;3.00;;;24.00;99.90;;;;;;5053950;28;20173;-67
2023/06/19 06:30:20;;;;;;;3.17;2.70;;;24.10;99.90;;;;;;5060510;28;20192;-66
2023/06/19 06:32:45;;;;;;;4.38;3.15;;;24.10;99.90;;;;;;5074724;28;20203;-67
2023/06/19 06:35:13;;;;;;;3.30;2.70;;;24.10;99.90;;;;;;5074334;28;20192;-66
2023/06/19 06:37:41;;;;;;;3.20;2.88;;;24.20;99.90;;;;;;5057449;28;20204;-66
2023/06/19 06:40:14;;;;;;;3.50;3.20;;;24.20;99.90;;;;;;5058209;28;20169;-66
2023/06/19 06:42:40;;;;;;;3.47;3.17;;;24.30;99.90;;;;;;5060202;28;20173;-66
2023/06/19 06:45:07;;;;;;;5.00;3.13;;;24.30;99.90;;;;;;5074905;28;20287;-66
2023/06/19 06:47:33;;;;;;;3.58;3.15;;;24.30;99.90;;;;;;5058100;28;20165;-67
2023/06/19 06:49:58;;;;;;;4.68;3.50;;;24.40;99.90;;;;;;5057445;28;20264;-66
2023/06/19 06:52:27;;;;;;;3.35;3.05;;;24.40;99.90;;;;;;5057367;28;20223;-65
2023/06/19 06:54:58;;;;;;;3.92;3.53;;;24.40;99.90;;;;;;5057423;28;20188;-67
2023/06/19 06:57:23;;;;;;;4.90;3.10;;;24.40;99.90;;;;;;5072893;28;20176;-68
2023/06/19 06:59:49;;;;;;;3.95;3.58;;;24.50;99.90;;;;;;5047607;28;20197;-67
2023/06/19 07:02:19;;;;;;;3.30;3.00;;;24.50;99.90;;;;;;5052588;28;20261;-67
2023/06/19 07:04:45;;;;;;;3.67;3.20;;;24.60;99.90;;;;;;5056986;28;20191;-67
2023/06/19 07:07:11;;;;;;;3.80;3.30;;;24.60;99.90;;;;;;5057392;28;20201;-66
2023/06/19 07:09:37;;;;;;;3.65;3.35;;;24.70;99.90;;;;;;5059143;28;20187;-67
2023/06/19 07:12:04;;;;;;;3.50;3.20;;;24.70;99.90;;;;;;5057081;28;20185;-67
2023/06/19 07:14:35;;;;;;;3.47;2.97;;;24.80;99.90;;;;;;5057222;28;20228;-66
2023/06/19 07:17:03;;;;;;;3.50;3.20;;;24.90;99.90;;;;;;5057062;28;20180;-66
2023/06/19 07:19:33;;;;;;;3.38;3.08;;;25.00;99.90;;;;;;5056842;28;20176;-66
2023/06/19 07:21:59;;;;;;;4.57;3.40;;;25.10;99.90;;;;;;5037166;28;20193;-67
2023/06/19 07:24:27;;;;;;;4.20;3.45;;;25.10;99.90;;;;;;5044488;28;20173;-68
2023/06/19 07:26:56;;;;;;;3.25;2.88;;;25.20;99.90;;;;;;5057008;28;20169;-67
2023/06/19 07:29:22;;;;;;;3.70;3.05;;;25.30;99.90;;;;;;5056705;28;20284;-66
2023/06/19 07:31:47;;;;;;;2.65;2.42;;;25.40;99.90;;;;;;5059623;28;20271;-68
2023/06/19 07:34:13;;;;;;;2.63;2.42;;;25.40;99.90;;;;;;5063790;28;20210;-67
2023/06/19 07:36:39;;;;;;;2.85;2.65;;;25.40;99.90;;;;;;5063237;28;20176;-66
2023/06/19 07:39:07;;;;;;;3.00;2.70;;;25.50;99.90;;;;;;5063773;28;20172;-66
2023/06/19 07:41:33;;;;;;;3.05;2.75;;;25.50;99.90;;;;;;5063569;28;20176;-67
2023/06/19 07:43:58;;;;;;;2.92;2.10;;;25.60;99.90;;;;;;5059755;28;20216;-67
2023/06/19 07:46:24;;;;;;;3.38;2.40;;;25.60;99.90;;;;;;5043672;28;20216;-66
2023/06/19 07:48:52;;;;;;;3.28;2.30;;;25.60;99.90;;;;;;5043876;28;20200;-68
2023/06/19 07:51:17;;;;;;;2.80;2.10;;;25.70;99.90;;;;;;5044170;28;20260;-64
2023/06/19 07:53:43;;;;;;;2.30;2.08;;;25.70;99.40;;;;;;5043473;28;20295;-67
2023/06/19 07:56:09;;;;;;;2.13;1.92;;;25.70;98.70;;;;;;5058606;28;20203;-67
2023/06/19 07:58:35;;;;;;;2.40;1.90;;;25.70;98.60;;;;;;5057133;28;20173;-67
2023/06/19 08:01:00;;;;;;;2.30;2.00;;;25.70;97.80;;;;;;5060397;28;20169;-66
2023/06/19 08:03:28;;;;;;;3.20;2.05;;;25.60;97.30;;;;;;5079430;28;20247;-67
2023/06/19 08:05:56;;;;;;;3.33;1.70;;;25.60;97.20;;;;;;5063023;28;20181;-67
2023/06/19 08:08:24;;;;;;;1.50;1.40;;;25.50;96.90;;;;;;5060966;28;20184;-67
2023/06/19 08:10:52;;;;;;;2.53;1.42;;;25.50;96.60;;;;;;5060967;28;20211;-66
2023/06/19 08:13:17;;;;;;;1.42;1.20;;;25.40;96.40;;;;;;5053555;28;20472;-65
2023/06/19 08:15:45;;;;;;;1.55;1.30;;;25.40;96.50;;;;;;5046010;28;20172;-66
2023/06/19 08:18:11;;;;;;;1.30;1.10;;;25.40;96.10;;;;;;5080262;28;20234;-66
2023/06/19 08:20:37;;;;;;;1.27;1.17;;;25.40;95.90;;;;;;5079583;28;20181;-67
2023/06/19 08:23:07;;;;;;;1.45;1.20;;;25.40;95.80;;;;;;5063042;28;20286;-67
2023/06/19 08:25:35;;;;;;;1.65;1.17;;;25.40;95.70;;;;;;5063244;28;20165;-66
2023/06/19 08:28:00;;;;;;;1.50;1.27;;;25.40;95.60;;;;;;5062925;28;20176;-66
2023/06/19 08:30:26;;;;;;;0.98;0.88;;;25.40;95.40;;;;;;5079736;28;20215;-66
2023/06/19 08:32:52;;;;;;;1.20;1.00;;;25.40;95.00;;;;;;5079489;28;20220;-67
2023/06/19 08:35:19;;;;;;;1.10;0.82;;;25.40;95.00;;;;;;5063023;28;20237;-66
2023/06/19 08:37:45;;;;;;;1.20;1.10;;;25.40;95.10;;;;;;5063162;28;20192;-67
2023/06/19 08:40:12;;;;;;;1.52;1.23;;;25.40;94.60;;;;;;5056700;28;20192;-67
2023/06/19 08:42:42;;;;;;;1.00;0.90;;;25.50;94.50;;;;;;5059256;28;20312;-68
2023/06/19 08:45:08;;;;;;;1.63;1.02;;;25.50;94.50;;;;;;5071913;28;20240;-67
2023/06/19 08:47:34;;;;;;;1.25;1.10;;;25.50;94.20;;;;;;5053131;28;20177;-67
2023/06/19 08:50:00;;;;;;;1.17;1.00;;;25.50;94.20;;;;;;5040093;28;20195;-68
2023/06/19 08:52:25;;;;;;;1.45;1.10;;;25.50;94.30;;;;;;5056308;28;20181;-67
2023/06/19 08:54:55;;;;;;;2.70;1.23;;;25.50;94.10;;;;;;5059850;28;20188;-67
2023/06/19 08:57:23;;;;;;;2.05;1.40;;;25.60;93.70;;;;;;5058001;28;20207;-67
2023/06/19 08:59:50;;;;;;;1.67;1.58;;;25.70;93.40;;;;;;5057952;28;20165;-68
2023/06/19 09:02:16;;;;;;;1.67;1.20;;;25.70;93.10;;;;;;5059237;28;20180;-67
2023/06/19 09:04:42;;;;;;;3.20;1.30;;;25.70;93.00;;;;;;5058987;28;20235;-65
2023/06/19 09:07:08;;;;;;;1.45;1.25;;;25.70;93.10;;;;;;5059470;28;20181;-68
2023/06/19 09:09:34;;;;;;;2.60;1.25;;;25.80;93.20;;;;;;5059501;28;20176;-68
2023/06/19 09:12:01;;;;;;;1.65;1.45;;;25.90;92.90;;;;;;5059347;28;20203;-67
2023/06/19 09:14:41;;;;;;;1.50;1.33;;;26.00;92.60;;;;;;5059025;28;20197;-67
2023/06/19 09:17:11;;;;;;;1.65;1.38;;;26.10;92.20;;;;;;5076476;28;20179;-67
2023/06/19 09:19:36;;;;;;;1.73;1.63;;;26.10;92.00;;;;;;5059630;28;20161;-66
2023/06/19 09:22:07;;;;;;;1.73;1.40;;;26.10;91.60;;;;;;5059222;28;20248;-67
2023/06/19 09:24:38;;;;;;;2.35;1.60;;;26.10;91.60;;;;;;5076087;28;20239;-68
2023/06/19 09:27:13;;;;;;;1.60;1.48;;;26.10;91.50;;;;;;5059217;28;20176;-67
2023/06/19 09:29:42;;;;;;;1.25;1.13;;;26.10;91.40;;;;;;5059001;28;20180;-68
2023/06/19 09:32:28;;;;;;;2.05;1.40;;;26.10;91.60;;;;;;5058205;28;20177;-67
2023/06/19 09:34:58;;;;;;;1.90;1.70;;;26.10;91.60;;;;;;5056026;28;20173;-68
2023/06/19 09:37:28;;;;;;;1.65;1.50;;;26.20;91.40;;;;;;5055827;28;20272;-67
2023/06/19 09:40:09;;;;;;;1.55;1.35;;;26.20;91.10;;;;;;5045120;28;20160;-67
2023/06/19 09:42:36;;;;;;;1.48;1.30;;;26.20;91.30;;;;;;5058592;28;20214;-67
2023/06/19 09:45:09;;;;;;;1.63;1.30;;;26.20;91.40;;;;;;5055551;28;20205;-67
2023/06/19 09:47:39;;;;;;;1.77;1.50;;;26.30;91.30;;;;;;5069121;28;20237;-68
2023/06/19 09:50:08;;;;;;;1.60;1.48;;;26.40;91.30;;;;;;5058116;28;20189;-66
2023/06/19 09:52:34;;;;;;;2.63;1.40;;;26.50;91.10;;;;;;5038992;28;20252;-66
2023/06/19 09:55:04;;;;;;;3.20;1.73;;;26.50;90.90;;;;;;5045725;28;20202;-65
2023/06/19 09:57:34;;;;;;;3.00;2.25;;;26.50;90.70;;;;;;5058021;28;20173;-65
2023/06/19 10:00:11;;;;;;;2.10;1.70;;;26.50;90.30;;;;;;5058322;28;20341;-65
2023/06/19 10:02:38;;;;;;;2.45;1.83;;;26.50;90.50;;;;;;5058685;28;20188;-65
2023/06/19 10:05:04;;;;;;;1.98;1.63;;;26.50;90.60;;;;;;5058059;28;20207;-65
2023/06/19 10:07:36;;;;;;;1.77;1.52;;;26.60;90.60;;;;;;5054689;28;20203;-65
2023/06/19 10:10:07;;;;;;;1.70;1.60;;;26.70;90.50;;;;;;5054998;28;20180;-66
2023/06/19 10:12:44;;;;;;;1.95;1.70;;;26.80;90.20;;;;;;5070108;28;20219;-67
2023/06/19 10:15:12;;;;;;;1.65;1.55;;;26.80;89.90;;;;;;5052348;28;20165;-66
2023/06/19 10:17:44;;;;;;;2.72;1.60;;;26.90;89.60;;;;;;5038003;28;20173;-66
2023/06/19 10:20:34;;;;;;;1.67;1.52;;;26.90;89.40;;;;;;5054611;28;20180;-65
2023/06/19 10:22:59;;;;;;;2.00;1.80;;;27.00;87.90;;;;;;5074476;28;20196;-67
2023/06/19 10:25:31;;;;;;;1.83;1.70;;;27.10;88.40;;;;;;5058280;28;20277;-66
2023/06/19 10:27:57;;;;;;;2.00;1.80;;;27.10;87.90;;;;;;5058090;28;20165;-68
2023/06/19 10:30:23;;;;;;;2.83;1.73;;;27.20;87.90;;;;;;5057905;28;20175;-67
2023/06/19 10:32:51;;;;;;;2.22;1.80;;;27.30;87.70;;;;;;5058467;28;20201;-66
2023/06/19 10:35:21;;;;;;;1.98;1.70;;;27.40;87.50;;;;;;5075132;28;20261;-68
2023/06/19 10:37:52;;;;;;;2.00;1.50;;;27.40;87.00;;;;;;5071099;28;20177;-66
2023/06/19 10:40:18;;;;;;;1.60;1.50;;;27.60;87.10;;;;;;5038257;28;20169;-66
2023/06/19 10:42:44;;;;;;;2.35;1.90;;;27.70;86.90;;;;;;5037849;28;20169;-66
2023/06/19 10:45:12;;;;;;;3.63;1.90;;;27.80;86.50;;;;;;5040649;28;20199;-66
2023/06/19 10:47:41;;;;;;;2.53;1.80;;;28.00;86.70;;;;;;5038404;28;20169;-66
2023/06/19 10:50:16;;;;;;;2.08;1.85;;;28.20;87.20;;;;;;5057491;28;20211;-67
2023/06/19 10:52:43;;;;;;;5.63;1.60;;;28.40;86.80;;;;;;5057331;28;20196;-67
2023/06/19 10:55:10;;;;;;;2.10;1.73;;;28.70;87.30;;;;;;5056926;28;20192;-67
2023/06/19 10:57:36;;;;;;;4.10;1.90;;;28.90;85.00;;;;;;5057583;28;20173;-66
2023/06/19 11:00:10;;;;;;;2.40;2.03;;;29.00;84.10;;;;;;5057170;28;20205;-67
2023/06/19 11:02:37;;;;;;;2.70;1.80;;;29.10;83.80;;;;;;5053364;28;20180;-66
2023/06/19 11:05:04;;;;;;;1.60;1.50;;;29.20;83.10;;;;;;5054446;28;20166;-66
2023/06/19 11:07:34;;;;;;;2.03;1.80;;;29.30;83.40;;;;;;5056193;28;20184;-66
2023/06/19 11:10:03;;;;;;;2.15;1.90;;;29.40;83.00;;;;;;5057277;28;20177;-66
2023/06/19 11:12:31;;;;;;;2.25;1.77;;;29.60;82.50;;;;;;5074105;28;20192;-66
2023/06/19 11:15:02;;;;;;;1.70;1.55;;;29.70;82.20;;;;;;5073739;28;20187;-66
2023/06/19 11:17:31;;;;;;;2.10;1.90;;;30.00;81.50;;;;;;5057333;28;20176;-67
2023/06/19 11:19:59;;;;;;;1.98;1.85;;;30.20;80.40;;;;;;5074150;28;20204;-66
2023/06/19 11:22:38;;;;;;;4.38;2.08;;;30.30;78.90;;;;;;5074007;28;20210;-66
2023/06/19 11:25:05;;;;;;;1.85;1.60;;;30.40;77.40;;;;;;5056990;28;20172;-67
2023/06/19 11:27:31;;;;;;;2.25;1.80;;;30.40;78.50;;;;;;5057178;28;20179;-66
2023/06/19 11:30:03;;;;;;;3.13;2.05;;;30.60;78.40;;;;;;5045670;28;20185;-67
2023/06/19 11:32:40;;;;;;;1.95;1.75;;;30.80;76.80;;;;;;5040900;28;20282;-67
2023/06/19 11:35:08;;;;;;;2.17;1.92;;;31.00;75.80;;;;;;5053921;28;20172;-67
2023/06/19 11:37:37;;;;;;;1.88;1.70;;;31.10;74.90;;;;;;5068792;28;20186;-66
2023/06/19 11:40:19;;;;;;;2.00;1.80;;;31.10;73.90;;;;;;5051418;28;20373;-67
2023/06/19 11:42:53;;;;;;;1.90;1.70;;;31.20;73.50;;;;;;5073787;28;20180;-67
2023/06/19 11:45:21;;;;;;;1.73;1.58;;;31.20;74.10;;;;;;5056642;28;20176;-66
2023/06/19 11:47:49;;;;;;;4.13;1.80;;;31.40;72.60;;;;;;5074527;28;20210;-67
2023/06/19 11:50:15;;;;;;;2.30;2.00;;;31.50;72.70;;;;;;5048951;28;20208;-66
2023/06/19 11:52:44;;;;;;;1.83;1.70;;;31.60;72.80;;;;;;5042186;28;20192;-66
2023/06/19 11:55:10;;;;;;;2.08;1.88;;;31.70;71.60;;;;;;5067859;28;20175;-67
2023/06/19 11:57:38;;;;;;;2.08;1.88;;;31.80;71.30;;;;;;5054504;28;20185;-67
2023/06/19 12:00:08;;;;;;;2.15;1.60;;;31.90;71.10;;;;;;5065461;28;20207;-67
2023/06/19 12:02:36;;;;;;;2.25;1.90;;;32.10;70.00;;;;;;5057183;28;20168;-66
2023/06/19 12:05:07;;;;;;;1.70;1.60;;;32.10;68.20;;;;;;5056516;28;20176;-67
2023/06/19 12:07:33;;;;;;;2.20;1.90;;;32.10;66.40;;;;;;5055765;28;20212;-67
2023/06/19 12:09:59;;;;;;;7.53;2.00;;;32.20;67.30;;;;;;5057125;28;20199;-67
2023/06/19 12:12:29;;;;;;;1.67;1.58;;;32.30;67.60;;;;;;5038060;28;20181;-66
2023/06/19 12:14:55;;;;;;;1.95;1.70;;;32.30;66.70;;;;;;5038264;28;20223;-67
2023/06/19 12:17:21;;;;;;;1.90;1.70;;;32.50;66.00;;;;;;5040533;28;20172;-67
2023/06/19 12:19:48;;;;;;;2.30;1.90;;;32.70;66.00;;;;;;5077553;28;20188;-67
2023/06/19 12:22:18;;;;;;;1.80;1.70;;;32.80;65.20;;;;;;5077040;28;20176;-67
2023/06/19 12:24:44;;;;;;;2.50;2.03;;;32.80;63.40;;;;;;5059590;28;20179;-67
2023/06/19 12:27:14;;;;;;;1.95;1.83;;;32.70;62.40;;;;;;5060366;28;20431;-66
2023/06/19 12:29:40;;;;;;;1.80;1.70;;;32.70;62.70;;;;;;5060285;28;20184;-67
2023/06/19 12:32:06;;;;;;;2.00;1.70;;;32.70;63.30;;;;;;5059794;28;20237;-67
2023/06/19 12:34:36;;;;;;;1.60;1.50;;;32.80;62.00;;;;;;5040114;28;20208;-67
2023/06/19 12:37:02;;;;;;;1.85;1.50;;;32.80;61.70;;;;;;5053035;28;20175;-67
2023/06/19 12:39:28;;;;;;;2.17;1.77;;;32.90;61.90;;;;;;5056564;28;20276;-67
2023/06/19 12:41:54;;;;;;;1.85;1.40;;;33.00;61.30;;;;;;5073248;28;20176;-67
2023/06/19 12:44:22;;;;;;;2.28;2.08;;;33.00;61.50;;;;;;5076705;28;20233;-67
2023/06/19 12:46:50;;;;;;;1.95;1.73;;;33.00;60.10;;;;;;5077681;28;20192;-67
2023/06/19 12:49:16;;;;;;;2.58;1.80;;;33.10;60.00;;;;;;5054714;28;20195;-68
2023/06/19 12:51:43;;;;;;;2.55;1.80;;;33.10;60.30;;;;;;5059511;28;20198;-67